Timeline UpdatesTrip UpdatesNews PostsPvt Posts♥♥Travel TipsAdmin PostsConv PostsFollowed PostsChat RequestsBlog PostsPNR Posts

Disclaimer
Search
 
 
Sat Oct 25, 2014 09:46:06 ISTHomeTrainsΣChainsAtlasPNRForumGalleryNewsFAQTripsMembersLoginFeedback
No Recent News for this Train
Other Trains in the News **new
Latest...
new timetable with effect from july 24 thursday for 15905 vivek( cape- dbrg )exp train leaves from cape at 23:00 instead of sat 14:45 and will reach monday dbrg at 07:15 instead of wed 03:30am
Tue Jun 24, 2014 (04:29PM)
⇐ Return Journey: Train# 15906

15905/Kanyakumari - Dibrugarh Vivek Express

Time-Table HAS CHANGED.
Sep 03 2014 (11:07AM)
Change Departure Station:
Change Arrival Station:
Post a Train Travel TipPost a Train Travel Tip **new
Post a Comment/Question/Picture/VideoPost a Comment/Question/Picture/Video
Inaugural Run
Sat Nov 26, 2011
Pantry/Catering
✓ Pantry Car Avbl
✓ Catering Avbl
Loco/Rake Reversals
DGR/Durgapur (5); VSKP/Visakhapatnam Junction (8);
RSA - Rake Sharing
.
Rake/Coach Composition
LOCO-SLR-GS-GS-GS-B2-B1-A1-PC-S9-S8-S7-S6-S5-S4-S3-S2-S1-GS-GS-GS-SLR
Loco
Official Loco Links:- CAPE - VSKP :- WAM-4/WAP-4 VSKP - DGR :-...
Read more...
WAM-4/WAP-4 DGR - DBRG :- WDM-3A
News    PNR    Forum    Time-Table    Availability    Fare Chart    Map    Arr/Dep History    Trips    Gallery    ΣChains    X/O    Timeline    
Travel Time: 80h 15m    54 halts    Distance: 4236 km    Avg Speed: 52 km/hr
Type: Mail/Express
Zone: NFR/Northeast Frontier
Departs @ 23:00 (Avg 14m late)
Platform# ???
    T  
Kanniyakumari/CAPE 
Arrives @ 07:15 +4 nights (Avg 3h 25m late)
Platform# ???
 M     
Dibrugarh/DBRG 

54 halts. 681 intermediate Stations between Kanniyakumari and Dibrugarh

Show ALL intermediate Stations  Show Old Time-Table

#TrkCodeStation NameX/OArrivesAvgDepartsAvgHaltPFDay#KmSpeedElevZoneAddress
1/--/CAPEKanniyakumari (3)»  -23:00+14--10.04738mSRKanyakumari, Tamil Nadu
2/--/NCJNagercoil Junction (4)  23:20+1223:25+175m--115.55322mSRNagercoil-629002, Tamil Nadu
3/--/TVCTrivandrum Central (5)  00:45+1400:50+155m--286.67812mSRThiruvananthapuram 695001, Kerala
4/==/QLNKollam Junction (6)  01:45 01:40+2101:50 01:45+205m22151.26016mSRKollam 0474-2746194, Kerala
5/==%CNGRChengannur (3)  02:48 02:46+1502:50 02:47+192 1m32212.2466mSRPh: 0479-2452340, Kerala
6%==%KTYMKottayam (3)X  03:30 03:32+3203:35+375 3m--2247.03315mSRTel: 0481 2563535, Kerala
7/==/ERNErnakulam Town (North) (2)X  05:20 05:25+2205:25 05:30+235m--2307.0509mSRTel: 0484 2395198, Kerala
8/==/AWYAluva (3)  05:38 05:50+2705:40 05:51+282 1m32323.87112mSRPh: 0484-2624141, Kerala
9/==/TCRThrissur (4)  06:35 06:37+2806:38 06:40+283m--2378.4486mSRThrissur Tel: 0487 2423150, Kerala
10/==/PGTPalakkad Junction (4)  08:15+808:20+115m32454.24484mSRPalghat Tel: 0491 2555231, Kerala
11/==/CBECoimbatore Main Junction (6)X  09:35+1209:40+175m--2509.563416mSRCoimbatore 641001, Tamil Nadu
12/==/TUPTiruppur (2)X  10:28+1810:30+182m22560.075305mSRTiruppur. Ph:0421-2200450, Tamil Nadu
13/==/EDErode Junction (4)X  11:10+2011:15+215m12610.274175mSRErode ph.no: 0424-2256111, Tamil Nadu
14/==/SASalem Junction (6)  12:05+2512:10+295m--2671.674283mSRSalem, Tamil Nadu
15/==/JTJJolarpettai Junction (5)XO  13:48+1:1113:50+1:152m--2791.869405mSRJolarpettai, Tamil Nadu
16/==/KPDKatpadi Junction (5)  14:58 15:03+1:1315:00 15:05+1:132m22875.755213mSRVellore 632007, Tamil Nadu
17/==/RURenigunta Junction (5)  17:20+1:2017:35+1:1715m--21000.162113mSCRChittoor District, Andhra Pradesh
18/==/NLRNellore (4)  19:23 19:33+1:5419:25 19:34+1:542 1m221121.96321mSCRNellore, Andhra Pradesh
19/==/BZAVijayawada Junction (10)X  23:35+1:3423:45+1:4110m--21377.08324mSCRVijayawada 520001, Andhra Pradesh
20/==/EEEluru (3)X  00:28+1:5300:30+1:522m231436.36319mSCREluru Ph.no. 08812 226401., Andhra Pradesh
21/==/RJYRajahmundry (3)X  01:53 01:55+1:4801:55 01:57+1:492m331526.28423mSCRRajahmundry ph.no. 0883-2420541, Andhra Pradesh
22/==/SLOSamalkot Junction (3)  02:33+2:0902:35+2:092m131576.44218mSCRSamalkot, Andhra Pradesh
23/==/DVDDuvvada (4)  05:46+1:2305:48+1:242m--31709.73646mECoRVishakhapatnam District, Andhra Pradesh
24/==/VSKPVisakhapatnam Junction (8)06:15+1:3006:35+1:3320m--31726.15411mECoRVishakhapatnam 530001, Andhra Pradesh
25/==/VZMVizianagaram Junction (5)X  07:43+1:3107:45+1:312m--31787.28263mECoRVizianagaram, Andhra Pradesh
26/==/CHESrikakulam Road (4)  08:36+1:3108:38+1:312m--31856.85534mECoRsrikakulam road ph .no. 08942-287222, Andhra Pradesh
27/==/PSAPalasa (3)  09:58+1:1510:00+1:182m--31929.76431mECoRKasibugga, Andhra Pradesh
28/==/BAMBrahmapur (3)  11:10+1:1411:15+1:155m--32004.16827mECoRBerhampur, Odisha
29/==/KURKhurda Road Junction (7)X  13:25+1:1313:40+1:1615m--32151.25725mECoRKhordha, Odisha
30/==/BBSBhubaneswar (4)X  14:05 14:00+1:2114:10 14:05+1:215m--32170.14240mECoRBhubaneshwar, Odisha
31%==/CTCCuttack Junction (5)  14:55 14:45+1:3115:00 14:50+1:315m--32198.06128mECoRCuttack, Odisha
32/==/BHCBhadrak (4)X  16:45 16:43+1:3216:47 16:45+1:462m--32313.68323mECoRBhadrak, Odisha
33/==/BLSBalasore (4)X  17:30+1:4617:32+1:462m--32376.16519mSERBalasore, Odisha
34/==/HIJHijli (2)  19:15+1:2519:20+1:235m--32488.31448mSERdist - paschim medinipur, West Bengal
35/==/MDNMidnapore (3)  20:18+1:2520:20+1:292m--32502.09053mSERMedinipur, West Bengal
36/==/BQABankura Junction (3)  21:28+1:3821:30+1:382m--32604.67189mSERDist - Bankura, West Bengal
37/==/ADRAAdra Junction (4)  22:15+1:4322:25+1:3810m--32657.538190mSERDist - Puruliya, West Bengal
38/--/ASNAsansol Junction (7)X  23:30+1:4123:40+1:4610m--32699.039113mERDist - Bardhaman, West Bengal
39/==/DGRDurgapur (5)XO00:46+1:3201:11 01:06+1:4825 20m142741.45471mERDurgapur, West Bengal
40%==%RPHRampurhat (3)X  03:17+1:4603:22+1:465m242859.64641mERDIST - Birbhum, West Bengal
41%==%MLDTMalda Town (5)  06:05+2:0006:20+2:0115m--42983.46830mERDist - Malda, West Bengal
42%==%KNEKishanGanj (3)  08:31+2:3808:33+2:382m--43131.65752mNFRKishanganj, Bihar
43%==|NJPNew Jalpaiguri Junction (8)  10:15 10:05+2:2510:30 10:20+2:3215m143218.955114mNFRCity-Siliguri . Dist-Jalpaiguri, West Bengal
44|--|APDJAlipur Duar Junction (3)  13:20 13:25+3:2813:30+3:2710 5m--43387.47553mNFRDist - Alipurduar, West Bengal
45|==|KOJKokrajhar (3)  14:35+3:2414:37+3:242m--43468.62946mNFR03661-270618, Assam
46|-=|NBQNew Bongaigaon Junction (4)  15:40 15:35+3:0715:45 15:40+3:115m--43496.47958mNFR783381., Assam
47|--|GLPTGoalpara Town (2)  16:25 16:19+3:2316:27 16:21+3:232m--43547.94649mNFRGoalpara Town Rail Station, Assam
48|--|GHYGuwahati (7)X  19:10+2:5919:25+3:0115m--43678.55360mNFRGuwahati, Assam
49|--|JIDJagi Road (2)  20:30+3:4420:32+3:462m--43735.55962mNFRJagiroad, Assam
50!=-|LMGLumding Junction (5)  22:35 22:38+4:2522:37 22:43+4:292 5m--43859.262142mNFRLumding, Assam
51|--|DPUDiphu (2)  23:14+4:0823:16+4:082m--43891.438180mNFRDiphu, Assam
52|--|DMVDimapur (3)  00:15+4:0900:20+4:155m--53928.750153mNFRDimapur, Nagaland
53|--|FKGFurkating Junction (2)  01:40 01:45+4:2901:42 01:47+4:372m--53998.869 NFRK B Rd, Assam
54|--|MXNMariani Junction (4)X  02:15 02:20+4:2702:25 02:30+4:2810m154036.957117mNFRDist. Jorhat Pin-785634, Assam
55|--|NTSKNew Tinsukia Junction (3)X  05:15+4:3305:25+4:3910m--54193.523124mNFRDist: Tinsukia, Assam
56|--|DBRGDibrugarh (4)•  07:15+3:25---54235.5-108mNFRDibrugarh 786003, Assam
Scroll to Top
Scroll to Bottom